Time;durP1;ratioP1;P1;durP2;ratioP2;P2;SDS_P1;SDS_P2;PMS_P1;PMS_P2;Temp;Humidity;BMP_temperature;BMP_pressure;BME280_temperature;BME280_humidity;BME280_pressure;Samples;Min_cycle;Max_cycle;Signal;HPM_P1;HPM_P2
2022/08/14 00:01:48;;;;;;;;;;;;;;;24.00;39.87;100114.00;4163825;28;20120;-64
2022/08/14 00:03:57;;;;;;;4.05;2.65;;;;;;;24.12;39.44;100101.94;4149970;28;19933;-64
2022/08/14 00:06:02;;;;;;;4.60;2.58;;;;;;;24.16;39.53;100099.06;4148808;28;20046;-64
2022/08/14 00:08:27;;;;;;;5.60;3.03;;;;;;;24.16;40.11;100095.53;4146540;28;20038;-65
2022/08/14 00:10:47;;;;;;;7.45;3.05;;;;;;;24.15;39.95;100084.06;4157755;28;20046;-64
2022/08/14 00:12:56;;;;;;;4.47;2.90;;;;;;;24.15;40.34;100078.75;4138917;28;20046;-64
2022/08/14 00:14:59;;;;;;;9.23;3.47;;;;;;;24.16;40.36;100085.78;4138326;28;20050;-64
2022/08/14 00:17:05;;;;;;;8.30;3.60;;;;;;;24.13;40.50;100079.75;4147907;28;20132;-64
2022/08/14 00:19:08;;;;;;;3.92;3.15;;;;;;;24.12;40.59;100083.34;4143423;28;20077;-64
2022/08/14 00:21:23;;;;;;;4.75;3.03;;;;;;;24.13;40.54;100071.78;4149159;28;20092;-64
2022/08/14 00:23:34;;;;;;;5.13;3.28;;;;;;;24.11;40.59;100069.22;4152055;28;20500;-64
2022/08/14 00:25:37;;;;;;;4.65;3.22;;;;;;;24.07;40.91;100069.44;4157848;28;20033;-64
2022/08/14 00:27:44;;;;;;;6.28;3.03;;;;;;;24.06;40.98;100068.56;4156872;28;20068;-64
2022/08/14 00:29:55;;;;;;;5.75;3.13;;;;;;;24.00;41.00;100066.22;4147466;28;20048;-64
2022/08/14 00:31:58;;;;;;;6.15;3.92;;;;;;;24.04;41.18;100063.31;4155455;28;20455;-64
2022/08/14 00:34:01;;;;;;;4.85;3.47;;;;;;;24.09;41.37;100064.91;4154321;28;20129;-64
2022/08/14 00:36:24;;;;;;;4.75;3.55;;;;;;;24.01;41.38;100060.81;4163109;28;20492;-64
2022/08/14 00:38:49;;;;;;;5.05;3.80;;;;;;;24.04;41.15;100063.31;4155071;28;20088;-64
2022/08/14 00:40:52;;;;;;;7.85;3.28;;;;;;;24.07;41.28;100064.13;4156474;28;20068;-64
2022/08/14 00:42:56;;;;;;;3.78;3.13;;;;;;;24.05;42.01;100075.69;4147033;28;20044;-64
2022/08/14 00:44:59;;;;;;;4.43;3.53;;;;;;;23.96;42.42;100075.25;4170233;28;20402;-64
2022/08/14 00:47:04;;;;;;;5.05;3.70;;;;;;;23.86;42.73;100070.38;4153392;28;20054;-64
2022/08/14 00:49:11;;;;;;;4.18;3.50;;;;;;;23.75;43.03;100066.50;4185678;28;20040;-64
2022/08/14 00:51:17;;;;;;;3.55;3.10;;;;;;;23.72;43.03;100069.28;4147434;28;20041;-64
2022/08/14 00:53:20;;;;;;;3.85;3.25;;;;;;;23.73;42.62;100063.03;4155808;28;20099;-64
2022/08/14 00:55:26;;;;;;;6.53;3.40;;;;;;;23.78;42.30;100061.88;4164670;28;20484;-64
2022/08/14 00:57:34;;;;;;;5.95;3.70;;;;;;;23.85;42.60;100065.13;4140712;28;20100;-64
2022/08/14 00:59:38;;;;;;;6.97;3.95;;;;;;;23.81;42.29;100072.34;4151914;28;20088;-64
2022/08/14 01:01:42;;;;;;;5.30;3.67;;;;;;;23.81;42.05;100071.50;4163444;28;20030;-64
2022/08/14 01:03:45;;;;;;;3.78;2.90;;;;;;;23.91;41.71;100070.16;4160950;28;20065;-64
2022/08/14 01:05:55;;;;;;;7.35;3.33;;;;;;;23.91;41.76;100070.16;4156025;28;20037;-65
2022/08/14 01:08:00;;;;;;;7.63;3.97;;;;;;;23.94;41.02;100055.88;4154633;28;20499;-64
2022/08/14 01:10:06;;;;;;;5.22;3.58;;;;;;;23.96;41.10;100054.88;4157717;28;20042;-64
2022/08/14 01:12:11;;;;;;;4.68;3.50;;;;;;;23.98;41.16;100060.97;4149867;28;20042;-64
2022/08/14 01:14:28;;;;;;;4.88;3.33;;;;;;;24.01;41.07;100054.66;4163950;28;20415;-64
2022/08/14 01:16:31;;;;;;;6.25;3.58;;;;;;;24.02;40.83;100051.94;4159241;28;20044;-64
2022/08/14 01:21:08;;;;;;;6.18;4.03;;;;;;;23.93;41.24;100044.38;4143443;28;20499;-64
2022/08/14 01:23:15;;;;;;;3.78;3.13;;;;;;;23.90;41.10;100044.53;4153548;28;20563;-64
2022/08/14 01:25:21;;;;;;;5.13;3.60;;;;;;;23.81;41.23;100042.28;4166179;28;20103;-64
2022/08/14 01:27:27;;;;;;;5.43;3.70;;;;;;;23.86;41.31;100038.53;4158769;28;20044;-64
2022/08/14 01:29:36;;;;;;;7.18;3.83;;;;;;;23.86;41.23;100035.88;4160715;28;20068;-64
2022/08/14 01:32:03;;;;;;;5.70;3.58;;;;;;;23.79;41.32;100030.91;4160949;28;20065;-64
2022/08/14 01:34:13;;;;;;;5.93;3.72;;;;;;;23.67;41.44;100027.91;4163978;28;20091;-64
2022/08/14 01:36:37;;;;;;;5.97;3.58;;;;;;;23.62;41.61;100018.41;4139592;28;20033;-64
2022/08/14 01:38:47;;;;;;;5.93;3.45;;;;;;;23.54;41.75;100010.84;4164676;28;20041;-64
2022/08/14 01:40:50;;;;;;;6.10;3.53;;;;;;;23.59;42.05;100003.50;4152368;28;20070;-64
2022/08/14 01:42:56;;;;;;;5.10;3.30;;;;;;;23.64;41.85;100004.16;4156307;28;20045;-64
2022/08/14 01:44:59;;;;;;;6.20;3.78;;;;;;;23.59;41.90;100003.50;4161061;28;20503;-64
2022/08/14 01:47:12;;;;;;;5.78;3.72;;;;;;;23.54;42.58;99997.56;4162908;28;20065;-64
2022/08/14 01:49:25;;;;;;;4.40;3.38;;;;;;;23.57;42.22;100008.03;4148999;28;20484;-64
2022/08/14 01:51:39;;;;;;;5.82;3.65;;;;;;;23.61;42.46;100006.97;4158482;28;20048;-64
2022/08/14 01:53:47;;;;;;;5.38;3.53;;;;;;;23.64;42.56;100011.25;4159912;28;20427;-64
2022/08/14 01:55:57;;;;;;;5.67;4.10;;;;;;;23.66;42.70;100004.94;4153866;28;20051;-64
2022/08/14 01:58:01;;;;;;;5.57;4.15;;;;;;;23.66;42.88;100004.09;4162553;28;20065;-65
2022/08/14 02:00:22;;;;;;;9.93;3.53;;;;;;;23.56;43.05;100006.31;4159035;28;20121;-65
2022/08/14 02:02:29;;;;;;;7.38;3.95;;;;;;;23.51;43.30;100006.53;4154086;28;20513;-64
2022/08/14 02:04:39;;;;;;;4.28;3.42;;;;;;;23.49;43.05;100011.03;4165510;28;20041;-64
2022/08/14 02:07:01;;;;;;;7.90;4.35;;;;;;;23.50;43.24;100006.59;4151304;28;20053;-64
2022/08/14 02:09:09;;;;;;;8.13;4.07;;;;;;;23.50;43.34;99999.50;4145262;28;20042;-64
2022/08/14 02:11:25;;;;;;;6.43;3.90;;;;;;;23.40;43.94;100002.66;4136953;28;20088;-64
2022/08/14 02:13:30;;;;;;;7.53;3.60;;;;;;;23.26;43.87;100004.16;4161479;28;20041;-65
2022/08/14 02:15:39;;;;;;;5.50;3.40;;;;;;;23.25;44.13;100006.88;4162061;28;20418;-65
2022/08/14 02:17:45;;;;;;;6.30;3.97;;;;;;;23.17;43.90;100001.91;4133056;28;20049;-64
2022/08/14 02:19:52;;;;;;;4.35;3.20;;;;;;;23.24;44.03;100000.69;4176391;28;20123;-65
2022/08/14 02:21:56;;;;;;;4.43;3.47;;;;;;;23.34;43.82;99996.69;4148994;28;20046;-64
2022/08/14 02:24:05;;;;;;;6.72;3.95;;;;;;;23.28;44.00;99996.13;4155108;28;20042;-64
2022/08/14 02:26:32;;;;;;;4.18;3.20;;;;;;;23.28;44.03;99996.97;4150779;28;20082;-64
2022/08/14 02:28:59;;;;;;;7.35;4.20;;;;;;;23.34;43.41;99991.38;4161328;28;20049;-64
2022/08/14 02:31:07;;;;;;;6.38;3.65;;;;;;;23.40;43.39;99981.44;4149034;28;20046;-64
2022/08/14 02:33:10;;;;;;;4.55;3.20;;;;;;;23.22;43.39;99991.97;4157140;28;20072;-64
2022/08/14 02:35:16;;;;;;;4.72;3.45;;;;;;;23.15;43.90;99993.16;4163702;28;20052;-65
2022/08/14 02:37:20;;;;;;;6.15;3.60;;;;;;;23.03;43.99;99983.94;4151131;28;20471;-64
2022/08/14 02:39:23;;;;;;;9.35;3.92;;;;;;;23.05;44.08;99990.03;4160500;28;20050;-64
2022/08/14 02:41:31;;;;;;;8.13;4.13;;;;;;;22.98;44.10;99981.50;4150988;28;20038;-64
2022/08/14 02:43:42;;;;;;;6.40;4.03;;;;;;;22.84;44.15;99987.41;4147636;28;20508;-64
2022/08/14 02:45:48;;;;;;;5.45;3.38;;;;;;;22.84;44.27;99992.72;4147753;28;20038;-64
2022/08/14 02:47:52;;;;;;;5.30;3.88;;;;;;;22.80;44.06;99993.78;4151578;28;20037;-65
2022/08/14 02:49:59;;;;;;;6.13;4.07;;;;;;;22.68;44.03;99986.38;4155282;28;20374;-65
2022/08/14 02:52:06;;;;;;;5.90;3.70;;;;;;;22.62;44.21;99979.56;4158221;28;20042;-64
2022/08/14 02:54:29;;;;;;;10.18;4.70;;;;;;;22.51;43.75;99975.66;4155257;28;20137;-65
2022/08/14 02:56:37;;;;;;;5.88;4.00;;;;;;;22.35;44.22;99978.09;4148671;28;20065;-64
2022/08/14 02:59:00;;;;;;;6.50;4.43;;;;;;;22.27;44.17;99983.69;4148345;28;20439;-64
2022/08/14 03:01:08;;;;;;;6.07;4.63;;;;;;;22.16;44.19;99978.81;4147401;28;20139;-64
2022/08/14 03:03:11;;;;;;;6.68;4.68;;;;;;;22.02;44.44;99983.81;4142539;28;20149;-64
2022/08/14 03:05:15;;;;;;;8.07;4.93;;;;;;;21.91;44.32;99981.63;4156463;28;20038;-64
2022/08/14 03:07:18;;;;;;;7.63;4.13;;;;;;;21.79;44.54;99983.84;4148550;28;20096;-64
2022/08/14 03:09:21;;;;;;;8.05;5.03;;;;;;;21.71;44.72;99977.13;4148427;28;20508;-64
2022/08/14 03:11:25;;;;;;;9.95;4.68;;;;;;;21.67;44.94;99978.16;4148402;28;20040;-64
2022/08/14 03:13:40;;;;;;;5.93;4.20;;;;;;;21.75;45.01;99979.59;4147086;28;20069;-64
2022/08/14 03:15:46;;;;;;;6.13;4.13;;;;;;;21.79;44.86;99978.53;4147808;28;20403;-64
2022/08/14 03:17:52;;;;;;;4.82;3.70;;;;;;;21.93;44.87;99972.72;4156265;28;20100;-64
2022/08/14 03:19:59;;;;;;;6.53;4.18;;;;;;;22.12;44.61;99969.28;4159582;28;20046;-64
2022/08/14 03:22:03;;;;;;;6.90;4.22;;;;;;;22.14;44.20;99973.59;4152025;28;20131;-64
2022/08/14 03:24:11;;;;;;;11.00;5.10;;;;;;;21.95;44.37;99972.66;4148181;28;20042;-64
2022/08/14 03:26:26;;;;;;;8.43;4.70;;;;;;;21.68;44.95;99982.53;4155293;28;20495;-64
2022/08/14 03:28:32;;;;;;;7.10;4.45;;;;;;;21.57;45.19;99983.81;4164708;28;20399;-65
2022/08/14 03:30:37;;;;;;;8.02;5.28;;;;;;;21.61;45.52;99974.84;4147154;28;20516;-64
2022/08/14 03:32:43;;;;;;;10.50;5.00;;;;;;;21.77;45.17;99966.28;4182499;28;20102;-64
2022/08/14 03:34:47;;;;;;;;;;;;;;;21.73;45.44;99965.56;4157219;28;20049;-64
2022/08/14 03:37:00;;;;;;;7.45;4.30;;;;;;;21.92;45.50;99973.63;4155723;28;19944;-64
2022/08/14 03:39:23;;;;;;;7.18;4.10;;;;;;;22.13;45.18;99971.88;4142613;28;20041;-64
2022/08/14 03:41:30;;;;;;;8.82;3.90;;;;;;;22.25;44.74;99973.16;4154099;28;20149;-64
2022/08/14 03:43:35;;;;;;;6.45;3.80;;;;;;;22.41;44.38;99964.59;4155607;28;20041;-64
2022/08/14 03:45:43;;;;;;;8.65;4.45;;;;;;;22.50;44.25;99958.88;4151469;28;20416;-65
2022/08/14 03:47:51;;;;;;;5.38;3.97;;;;;;;22.47;44.48;99961.66;4162299;28;20038;-64
2022/08/14 03:50:04;;;;;;;6.68;4.32;;;;;;;22.44;44.44;99964.44;4161283;28;20064;-65
2022/08/14 03:52:09;;;;;;;9.82;4.90;;;;;;;22.53;44.14;99964.06;4150753;28;20098;-64
2022/08/14 03:54:34;;;;;;;6.90;5.07;;;;;;;22.48;44.30;99968.69;4151419;28;20060;-65
2022/08/14 03:56:39;;;;;;;8.25;4.60;;;;;;;22.48;44.24;99963.41;4150848;28;20535;-65
2022/08/14 03:58:46;;;;;;;7.13;4.80;;;;;;;22.41;44.32;99954.00;4159075;28;20403;-65
2022/08/14 04:00:52;;;;;;;10.10;4.80;;;;;;;22.48;44.40;99961.59;4150374;28;20044;-64
2022/08/14 04:02:55;;;;;;;;;;;;;;;22.42;44.71;99971.63;4149055;28;20430;-64
2022/08/14 04:05:01;;;;;;;12.70;4.72;;;;;;;22.48;44.49;99963.41;4157906;28;20422;-64
2022/08/14 04:07:14;;;;;;;9.15;4.72;;;;;;;22.46;44.42;99963.47;4163617;28;20450;-64
2022/08/14 04:09:20;;;;;;;8.57;5.57;;;;;;;22.49;44.39;99955.38;4138780;28;20459;-64
2022/08/14 04:11:28;;;;;;;9.68;5.20;;;;;;;22.53;44.34;99957.91;4150399;28;20101;-64
2022/08/14 04:13:34;;;;;;;7.57;5.60;;;;;;;22.53;44.39;99950.81;4155434;28;20038;-64
2022/08/14 04:15:37;;;;;;;9.90;6.05;;;;;;;22.41;44.79;99956.63;4163271;28;20051;-64
2022/08/14 04:18:07;;;;;;;8.18;4.75;;;;;;;22.39;44.88;99951.41;4163359;28;20038;-64
2022/08/14 04:20:14;;;;;;;10.23;5.15;;;;;;;22.42;44.79;99951.28;4158079;28;20045;-64
2022/08/14 04:22:27;;;;;;;10.63;5.97;;;;;;;22.36;44.94;99950.69;4151422;28;20543;-64
2022/08/14 04:24:30;;;;;;;8.73;5.93;;;;;;;22.41;44.78;99944.25;4153643;28;20280;-64
2022/08/14 04:26:43;;;;;;;7.30;5.50;;;;;;;22.48;44.92;99951.00;4153889;28;20488;-64
2022/08/14 04:28:47;;;;;;;8.43;5.43;;;;;;;22.42;45.11;99953.06;4166836;28;20033;-64
2022/08/14 04:31:10;;;;;;;9.82;5.72;;;;;;;22.33;45.22;99956.97;4165834;28;20045;-64
2022/08/14 04:33:15;;;;;;;8.23;5.90;;;;;;;22.27;45.50;99952.75;4157267;28;20044;-65
2022/08/14 04:35:23;;;;;;;8.98;5.68;;;;;;;22.21;45.64;99953.03;4159975;28;20062;-65
2022/08/14 04:45:07;;;;;;;9.65;6.75;;;;;;;22.07;46.10;99961.53;4164887;28;20515;-64
2022/08/14 04:49:35;;;;;;;8.00;6.20;;;;;;;21.96;46.49;99955.81;4141901;28;20057;-65
2022/08/14 04:51:48;;;;;;;9.02;6.50;;;;;;;22.14;46.14;99948.91;4153144;28;20061;-65
2022/08/14 04:53:59;;;;;;;7.72;6.00;;;;;;;22.31;45.75;99950.84;4158772;28;20037;-64
2022/08/14 04:56:02;;;;;;;;;;;;;;;22.27;46.01;99946.63;4161912;28;20531;-64
2022/08/14 04:58:08;;;;;;;10.25;6.10;;;;;;;22.36;45.82;99956.00;4157677;28;19976;-64
2022/08/14 05:00:23;;;;;;;8.02;6.07;;;;;;;22.44;45.62;99957.38;4146583;28;20046;-64
2022/08/14 05:02:27;;;;;;;7.15;5.75;;;;;;;22.51;45.79;99946.50;4158083;28;20504;-64
2022/08/14 05:04:30;;;;;;;8.18;6.15;;;;;;;22.52;45.71;99949.09;4158726;28;20561;-64
2022/08/14 05:06:34;;;;;;;10.40;6.35;;;;;;;22.51;45.98;99955.31;4166810;28;20045;-65
2022/08/14 05:08:42;;;;;;;9.88;6.78;;;;;;;22.52;45.72;99946.44;4159493;28;20125;-64
2022/08/14 05:11:03;;;;;;;11.20;6.95;;;;;;;22.53;46.21;99953.47;4162147;28;20041;-64
2022/08/14 05:13:07;;;;;;;9.13;6.78;;;;;;;22.48;46.39;99943.06;4151396;28;20042;-65
2022/08/14 05:15:30;;;;;;;9.32;7.22;;;;;;;22.37;46.58;99947.09;4161857;28;20037;-64
2022/08/14 05:17:34;;;;;;;9.95;6.28;;;;;;;22.36;46.55;99950.69;4166383;28;20096;-64
2022/08/14 05:19:46;;;;;;;10.88;7.70;;;;;;;22.40;46.77;99949.59;4166216;28;20140;-64
2022/08/14 05:22:10;;;;;;;10.55;7.80;;;;;;;22.44;46.75;99948.56;4155299;28;20495;-64
2022/08/14 05:24:20;;;;;;;12.85;8.32;;;;;;;22.45;47.02;99937.91;4144519;28;20092;-64
2022/08/14 05:26:23;;;;;;;11.73;7.40;;;;;;;22.48;46.93;99943.06;4161132;28;20050;-64
2022/08/14 05:28:28;;;;;;;11.73;7.32;;;;;;;22.42;46.93;99943.31;4152341;28;20077;-64
2022/08/14 05:30:31;;;;;;;15.55;7.63;;;;;;;22.44;47.43;99937.97;4150307;28;20407;-64
2022/08/14 05:32:34;;;;;;;10.48;7.93;;;;;;;22.42;47.39;99940.69;4166082;28;20124;-64
2022/08/14 05:34:38;;;;;;;10.15;8.05;;;;;;;22.39;47.32;99934.66;4164538;28;20431;-64
2022/08/14 05:36:47;;;;;;;10.27;7.15;;;;;;;22.48;47.18;99928.97;4143953;28;20045;-64
2022/08/14 05:39:06;;;;;;;10.93;7.80;;;;;;;22.58;46.91;99938.22;4159653;28;20042;-64
2022/08/14 05:41:12;;;;;;;10.07;8.25;;;;;;;22.68;47.01;99943.97;4155807;28;20056;-64
2022/08/14 05:43:15;;;;;;;9.80;7.72;;;;;;;22.73;47.16;99941.13;4166091;28;20120;-64
2022/08/14 05:45:18;;;;;;;10.63;8.25;;;;;;;22.74;47.01;99943.69;4154388;28;20041;-64
2022/08/14 05:47:21;;;;;;;9.90;8.40;;;;;;;22.80;47.21;99945.22;4149697;28;20129;-64
2022/08/14 05:49:25;;;;;;;10.20;8.35;;;;;;;22.80;47.12;99938.13;4153825;28;20125;-64
2022/08/14 05:51:35;;;;;;;11.00;7.70;;;;;;;22.85;46.86;99940.56;4163313;28;20519;-64
2022/08/14 05:53:39;;;;;;;10.53;7.97;;;;;;;22.99;46.71;99939.94;4155705;28;20396;-64
2022/08/14 05:55:45;;;;;;;10.48;8.82;;;;;;;23.04;46.96;99937.94;4156063;28;20288;-64
2022/08/14 05:57:52;;;;;;;9.68;7.68;;;;;;;23.03;47.11;99933.56;4164074;28;20168;-64
2022/08/14 05:59:55;;;;;;;12.73;8.15;;;;;;;23.01;47.33;99936.31;4156335;28;20042;-64
2022/08/14 06:01:58;;;;;;;14.73;9.32;;;;;;;23.08;47.40;99936.00;4156452;28;20404;-64
2022/08/14 06:04:04;;;;;;;11.35;8.02;;;;;;;23.07;47.42;99937.81;4161330;28;20519;-64
2022/08/14 06:06:07;;;;;;;13.90;9.40;;;;;;;23.14;47.04;99927.81;4155658;28;20041;-64
2022/08/14 06:08:17;;;;;;;11.10;8.00;;;;;;;23.20;47.02;99927.50;4157246;28;20046;-64
2022/08/14 06:10:37;;;;;;;13.77;9.27;;;;;;;23.22;47.25;99920.34;4149479;28;20161;-64
2022/08/14 06:12:45;;;;;;;13.18;9.68;;;;;;;23.29;46.92;99921.78;4153031;28;20446;-64
2022/08/14 06:14:59;;;;;;;10.55;8.88;;;;;;;23.32;46.67;99919.00;4154236;28;20110;-64
2022/08/14 06:17:01;;;;;;;14.70;9.63;;;;;;;23.39;46.63;99922.19;4149316;28;20060;-64
2022/08/14 06:19:05;;;;;;;11.88;8.95;;;;;;;23.39;46.77;99924.00;4158564;28;20041;-64
2022/08/14 06:21:14;;;;;;;14.50;10.15;;;;;;;23.38;47.18;99922.25;4162704;28;20047;-64
2022/08/14 06:23:19;;;;;;;12.05;9.27;;;;;;;23.39;46.94;99911.56;4144638;28;20038;-64
2022/08/14 06:25:24;;;;;;;13.68;9.38;;;;;;;23.52;47.00;99917.16;4180513;28;20045;-64
2022/08/14 06:27:27;;;;;;;13.97;10.13;;;;;;;23.59;47.47;99913.28;4158597;28;20279;-64
2022/08/14 06:29:38;;;;;;;13.82;10.77;;;;;;;23.64;47.85;99911.28;4160015;28;20133;-64
2022/08/14 06:31:41;;;;;;;17.00;11.93;;;;;;;23.72;47.88;99910.03;4149603;28;20045;-64
2022/08/14 06:33:44;;;;;;;11.57;9.73;;;;;;;23.74;46.95;99898.38;4148633;28;20042;-64
2022/08/14 06:36:08;;;;;;;17.75;11.60;;;;;;;23.82;47.30;99896.22;4150115;28;20046;-64
2022/08/14 06:38:15;;;;;;;13.05;10.05;;;;;;;23.88;47.30;99889.78;4148856;28;20408;-63
2022/08/14 06:40:21;;;;;;;13.20;10.77;;;;;;;23.92;47.28;99887.81;4156720;28;20042;-64
2022/08/14 06:42:29;;;;;;;14.18;11.43;;;;;;;23.90;47.98;99882.59;4156704;28;20407;-64
2022/08/14 06:44:34;;;;;;;13.45;9.77;;;;;;;23.96;47.67;99879.66;4148882;28;20030;-64
2022/08/14 06:46:39;;;;;;;13.45;9.85;;;;;;;24.03;48.11;99881.06;4148734;28;20116;-64
2022/08/14 06:48:42;;;;;;;16.27;12.20;;;;;;;24.11;48.04;99877.13;4159293;28;20049;-64
2022/08/14 06:50:46;;;;;;;16.45;12.18;;;;;;;24.15;48.49;99874.25;4155002;28;20508;-64
2022/08/14 06:52:50;;;;;;;15.20;11.38;;;;;;;24.20;47.68;99874.00;4159977;28;20052;-64
2022/08/14 06:54:55;;;;;;;13.68;11.57;;;;;;;24.12;47.87;99874.38;4159936;28;20052;-64
2022/08/14 06:56:58;;;;;;;11.85;10.38;;;;;;;24.15;47.99;99876.03;4160363;28;20052;-64
2022/08/14 06:59:01;;;;;;;15.68;12.82;;;;;;;24.21;47.66;99875.69;4153177;28;20103;-64
2022/08/14 07:05:53;;;;;;;13.90;11.43;;;;;;;24.17;47.78;99872.38;4121907;28;20132;-64
2022/08/14 07:07:59;;;;;;;12.70;9.77;;;;;;;24.25;47.24;99869.28;4162435;28;20047;-64
2022/08/14 07:10:03;;;;;;;11.85;9.00;;;;;;;24.32;46.86;99865.38;4157003;28;20060;-64
2022/08/14 07:12:07;;;;;;;10.48;9.27;;;;;;;24.37;46.82;99866.00;4150452;28;20042;-64
2022/08/14 07:14:30;;;;;;;9.98;8.50;;;;;;;24.36;46.50;99858.97;4153575;28;20041;-64
2022/08/14 07:16:34;;;;;;;13.30;9.02;;;;;;;24.44;46.63;99863.03;4160725;28;20162;-64
2022/08/14 07:18:40;;;;;;;12.73;10.95;;;;;;;24.63;46.77;99861.13;4154299;28;20126;-64
2022/08/14 07:20:44;;;;;;;13.05;10.27;;;;;;;24.68;46.77;99863.56;4159875;28;20045;-64
2022/08/14 07:22:48;;;;;;;12.10;9.45;;;;;;;24.68;46.52;99866.22;4159882;28;20045;-64
2022/08/14 07:24:58;;;;;;;11.85;9.07;;;;;;;24.57;46.65;99864.97;4158637;28;20128;-64
2022/08/14 07:27:01;;;;;;;9.75;7.68;;;;;;;24.56;46.21;99854.38;4189863;28;20049;-64
2022/08/14 07:29:04;;;;;;;12.88;8.73;;;;;;;24.67;46.70;99857.38;4163245;28;20111;-65
2022/08/14 07:31:10;;;;;;;10.48;8.10;;;;;;;24.94;45.68;99861.25;4155788;28;20053;-64
2022/08/14 07:33:13;;;;;;;12.50;7.47;;;;;;;24.89;45.49;99854.38;4163034;28;20047;-64
2022/08/14 07:35:18;;;;;;;10.43;8.40;;;;;;;24.94;45.63;99859.47;4148584;28;20034;-64
2022/08/14 07:37:21;;;;;;;9.65;7.95;;;;;;;24.98;45.79;99868.13;4175389;28;20724;-64
2022/08/14 07:39:24;;;;;;;8.27;7.40;;;;;;;24.92;45.44;99874.63;4153517;28;21406;-64
2022/08/14 07:41:29;;;;;;;11.55;7.22;;;;;;;24.91;45.40;99876.44;4154383;28;20111;-64
2022/08/14 07:43:38;;;;;;;9.73;7.50;;;;;;;25.05;44.78;99867.69;4153278;28;20067;-64
2022/08/14 07:45:42;;;;;;;9.05;6.90;;;;;;;25.04;45.15;99868.66;4164354;28;20120;-64
2022/08/14 07:47:44;;;;;;;7.45;6.35;;;;;;;24.95;45.25;99873.63;4156901;28;20033;-64
2022/08/14 07:49:58;;;;;;;14.82;7.97;;;;;;;25.07;45.15;99873.81;4145563;28;20070;-64
2022/08/14 07:52:03;;;;;;;8.68;7.78;;;;;;;25.19;44.84;99879.34;4156116;28;20136;-64
2022/08/14 07:54:06;;;;;;;12.75;7.82;;;;;;;25.13;44.96;99887.69;4162959;28;20048;-64
2022/08/14 07:56:13;;;;;;;8.65;6.35;;;;;;;25.16;44.80;99875.09;4162452;28;20519;-64
2022/08/14 07:58:37;;;;;;;9.35;7.90;;;;;;;25.35;44.33;99877.59;4137100;28;20102;-64
2022/08/14 08:00:55;;;;;;;12.45;7.68;;;;;;;25.34;44.04;99870.56;4160218;28;20484;-64
2022/08/14 08:02:59;;;;;;;7.78;6.20;;;;;;;25.28;44.13;99862.91;4161920;28;20117;-64
2022/08/14 08:05:02;;;;;;;6.70;5.57;;;;;;;25.27;44.28;99861.16;4141165;28;20558;-64
2022/08/14 08:07:08;;;;;;;9.48;7.53;;;;;;;25.48;44.03;99866.25;4159085;28;20530;-64
2022/08/14 08:09:12;;;;;;;8.48;6.85;;;;;;;25.49;43.74;99875.94;4146064;28;20467;-64
2022/08/14 08:11:18;;;;;;;10.80;8.40;;;;;;;25.67;43.32;99871.34;4155628;28;20038;-64
2022/08/14 08:13:22;;;;;;;10.82;6.70;;;;;;;25.60;43.55;99874.38;4148271;28;20042;-65
2022/08/14 08:15:28;;;;;;;8.57;5.80;;;;;;;25.56;43.91;99882.63;4155122;28;20034;-64
2022/08/14 08:17:33;;;;;;;7.22;5.95;;;;;;;25.59;43.84;99877.97;4161824;28;20041;-65
2022/08/14 08:19:46;;;;;;;7.63;6.53;;;;;;;25.81;43.66;99886.53;4146612;28;20030;-65
2022/08/14 08:21:53;;;;;;;8.88;7.22;;;;;;;25.94;42.62;99884.88;4145747;28;20049;-65
2022/08/14 08:23:57;;;;;;;8.93;7.30;;;;;;;25.91;43.00;99880.56;4147845;28;20132;-64
2022/08/14 08:26:00;;;;;;;10.13;6.65;;;;;;;25.90;43.18;99878.00;4153211;28;20042;-64
2022/08/14 08:28:06;;;;;;;10.48;7.57;;;;;;;26.08;42.39;99876.94;4153744;28;20507;-64
2022/08/14 08:30:11;;;;;;;10.55;7.88;;;;;;;26.23;42.19;99872.50;4142953;28;20038;-64
2022/08/14 08:32:14;;;;;;;;;;;;;;;26.22;41.89;99872.59;4139380;28;20035;-64
2022/08/14 08:34:18;;;;;;;8.13;6.45;;;;;;;26.10;42.13;99869.72;4143429;28;19921;-64
2022/08/14 08:36:23;;;;;;;7.70;6.10;;;;;;;26.05;42.29;99871.81;4161166;28;20076;-64
2022/08/14 08:38:32;;;;;;;10.98;6.47;;;;;;;26.18;42.56;99860.41;4163987;28;20073;-65
2022/08/14 08:40:59;;;;;;;7.80;6.45;;;;;;;26.35;41.88;99848.72;4154420;28;20054;-64
2022/08/14 08:43:05;;;;;;;8.80;6.30;;;;;;;26.52;40.57;99853.00;4165324;28;20136;-65
2022/08/14 08:45:15;;;;;;;9.98;6.90;;;;;;;26.44;40.72;99845.47;4154542;28;20069;-65
2022/08/14 08:47:19;;;;;;;8.68;7.00;;;;;;;26.59;40.35;99849.00;4163584;28;20494;-65
2022/08/14 08:49:22;;;;;;;11.38;7.05;;;;;;;26.51;40.50;99854.81;4144067;28;20048;-65
2022/08/14 08:51:27;;;;;;;8.40;6.60;;;;;;;26.51;41.21;99848.63;4145975;28;20050;-64
2022/08/14 08:53:34;;;;;;;8.75;6.78;;;;;;;26.59;40.38;99844.53;4158891;28;20037;-65
2022/08/14 08:55:39;;;;;;;8.20;6.25;;;;;;;26.83;39.60;99842.16;4160498;28;20076;-64
2022/08/14 08:57:45;;;;;;;6.90;5.60;;;;;;;26.72;40.15;99836.66;4143288;28;20049;-64
2022/08/14 08:59:48;;;;;;;7.50;5.72;;;;;;;26.80;40.31;99837.00;4151345;28;20047;-65
2022/08/14 09:02:02;;;;;;;6.05;4.90;;;;;;;26.89;40.35;99840.91;4142241;28;20565;-64
2022/08/14 09:04:06;;;;;;;7.18;5.55;;;;;;;26.98;40.94;99836.78;4172167;28;20041;-65
2022/08/14 09:06:19;;;;;;;6.93;4.97;;;;;;;27.05;39.89;99834.59;4147370;28;20038;-64
2022/08/14 09:08:45;;;;;;;8.02;6.00;;;;;;;27.14;38.48;99834.84;4156028;28;20049;-65
2022/08/14 09:10:48;;;;;;;5.55;4.38;;;;;;;27.32;36.78;99829.25;4148181;28;20044;-65
2022/08/14 09:12:59;;;;;;;6.53;4.93;;;;;;;27.46;36.17;99829.22;4150830;28;20525;-65
2022/08/14 09:15:06;;;;;;;4.90;4.32;;;;;;;27.36;36.59;99821.94;4151274;28;20050;-65
2022/08/14 09:17:14;;;;;;;8.63;5.22;;;;;;;27.55;36.50;99826.91;4151876;28;20072;-64
2022/08/14 09:19:17;;;;;;;5.40;4.87;;;;;;;27.47;36.99;99836.28;4141454;28;20034;-63
2022/08/14 09:21:23;;;;;;;5.70;4.63;;;;;;;27.48;37.19;99834.47;4155078;28;20069;-63
2022/08/14 09:23:33;;;;;;;6.15;4.18;;;;;;;27.45;36.96;99824.00;4146987;28;20133;-66
2022/08/14 09:25:56;;;;;;;8.93;4.47;;;;;;;27.52;36.77;99817.28;4153074;28;20060;-64
2022/08/14 09:28:06;;;;;;;5.05;4.10;;;;;;;27.60;37.21;99816.75;4152949;28;20046;-63
2022/08/14 09:30:10;;;;;;;5.50;4.40;;;;;;;27.69;37.12;99809.00;4164145;28;20040;-63
2022/08/14 09:32:49;;;;;;;4.65;3.70;;;;;;;27.87;36.92;99814.03;4146344;28;20451;-63
2022/08/14 09:35:12;;;;;;;4.57;3.83;;;;;;;28.00;36.08;99800.72;4155278;28;20041;-63
2022/08/14 09:37:31;;;;;;;7.85;4.68;;;;;;;28.27;34.88;99805.09;4160525;28;20046;-64
2022/08/14 09:39:48;;;;;;;6.90;4.13;;;;;;;28.25;34.38;99804.38;4149952;28;20484;-63
2022/08/14 09:42:14;;;;;;;5.35;3.83;;;;;;;28.33;33.46;99794.84;4152985;28;20060;-62
2022/08/14 09:44:45;;;;;;;5.13;3.50;;;;;;;28.27;33.70;99791.75;4183662;28;20410;-64
2022/08/14 09:46:55;;;;;;;4.57;3.58;;;;;;;28.42;33.82;99792.50;4145725;28;20345;-62
2022/08/14 09:49:02;;;;;;;6.50;3.90;;;;;;;28.66;33.21;99789.91;4139985;28;20140;-62
2022/08/14 09:51:08;;;;;;;9.63;4.00;;;;;;;28.69;33.19;99808.41;4163361;28;20125;-64
2022/08/14 09:53:18;;;;;;;5.07;3.70;;;;;;;28.62;33.36;99799.09;4148893;28;20049;-65
2022/08/14 09:55:23;;;;;;;4.88;3.65;;;;;;;28.65;32.99;99801.56;4180101;28;20486;-64
2022/08/14 09:57:29;;;;;;;5.00;3.65;;;;;;;28.78;32.82;99801.53;4140572;28;20055;-64
2022/08/14 09:59:44;;;;;;;5.65;3.58;;;;;;;28.84;31.54;99790.38;4172844;28;20040;-63
2022/08/14 10:01:48;;;;;;;8.48;3.38;;;;;;;28.80;31.53;99792.44;4143792;28;20524;-63
2022/08/14 10:03:56;;;;;;;3.53;3.03;;;;;;;28.85;32.20;99800.97;4129307;28;20445;-63
2022/08/14 10:06:05;;;;;;;4.65;3.40;;;;;;;28.95;32.38;99808.34;4147227;28;20050;-63
2022/08/14 10:08:19;;;;;;;10.60;4.07;;;;;;;29.31;31.71;99801.25;4140125;28;20133;-63
2022/08/14 10:10:30;;;;;;;4.70;3.90;;;;;;;29.08;31.97;99804.63;4133984;28;20058;-63
2022/08/14 10:12:44;;;;;;;5.22;3.50;;;;;;;29.03;32.37;99796.09;4141865;28;20117;-63
2022/08/14 10:14:49;;;;;;;6.30;3.80;;;;;;;29.09;32.51;99800.16;4147305;28;20046;-63
2022/08/14 10:16:57;;;;;;;4.40;3.88;;;;;;;29.14;32.56;99783.75;4181422;28;20041;-63
2022/08/14 10:19:04;;;;;;;4.63;3.35;;;;;;;29.21;32.44;99777.81;4149191;28;20038;-62